Terminal Aerodrome Forecast
Issued by NWS Upton, NY

Current Version | Previous Version | Text Only | Print | Product List | Glossary On
Versions: 1 2 3 4 5 6 7 8 9 10 11 12 13 14 15 16 17 18 19 20 21 22 23 24 25 26 27 28 29 30
000 FTUS41 KOKX 051400 AAA TAFISP TAF AMD KISP 051434Z 0515/0612 35010G17KT 1/2SM SN FZFG OVC005 TEMPO 0515/0518 1/4SM +SN FZFG FM051900 35012G18KT 1SM -SN BR BKN008 OVC015 FM052100 33012KT 3SM -SN BKN020 OVC050 FM060000 33010KT P6SM SCT020 BKN050 FM060900 36009KT P6SM FEW050=

USA.gov is the U.S. government's official web portal to all federal, state and local government web resources and services.